Time;durP1;ratioP1;P1;durP2;ratioP2;P2;SDS_P1;SDS_P2;PMS_P1;PMS_P2;Temp;Humidity;BMP_temperature;BMP_pressure;BME280_temperature;BME280_humidity;BME280_pressure;Samples;Min_cycle;Max_cycle;Signal;HPM_P1;HPM_P2
2022/05/23 00:01:48;;;;;;;2.88;0.90;;;;;;;;;;4972729;28;20113;-73
2022/05/23 00:04:14;;;;;;;2.53;0.98;;;;;;;;;;4970540;28;20042;-73
2022/05/23 00:06:40;;;;;;;4.63;1.10;;;;;;;;;;4976885;28;20050;-73
2022/05/23 00:09:07;;;;;;;3.47;1.02;;;;;;;;;;4973716;28;20103;-73
2022/05/23 00:11:33;;;;;;;5.20;1.40;;;;;;;;;;4971546;28;20023;-73
2022/05/23 00:13:59;;;;;;;5.10;1.27;;;;;;;;;;4971784;28;20490;-73
2022/05/23 00:16:26;;;;;;;6.47;1.25;;;;;;;;;;4971173;28;20050;-73
2022/05/23 00:18:52;;;;;;;6.25;1.23;;;;;;;;;;4972933;28;20039;-73
2022/05/23 00:21:19;;;;;;;4.22;1.13;;;;;;;;;;4971031;28;20070;-73
2022/05/23 00:23:45;;;;;;;5.78;1.40;;;;;;;;;;4963881;28;20307;-73
2022/05/23 00:26:13;;;;;;;3.53;1.10;;;;;;;;;;4970604;28;20105;-73
2022/05/23 00:28:39;;;;;;;6.05;1.20;;;;;;;;;;4972736;28;20023;-73
2022/05/23 00:31:07;;;;;;;3.28;1.00;;;;;;;;;;4971903;28;20101;-73
2022/05/23 00:36:18;;;;;;;2.45;0.85;;;;;;;;;;4972884;28;20104;-73
2022/05/23 00:38:44;;;;;;;5.63;1.73;;;;;;;;;;4971237;28;20027;-73
2022/05/23 00:44:13;;;;;;;3.17;1.27;;;;;;;;;;4976296;28;20045;-73
2022/05/23 00:46:49;;;;;;;4.38;1.27;;;;;;;;;;4958506;28;20497;-73
2022/05/23 00:49:18;;;;;;;3.28;0.93;;;;;;;;;;4972930;28;20027;-74
2022/05/23 00:51:44;;;;;;;3.85;1.17;;;;;;;;;;4972493;28;20034;-73
2022/05/23 00:54:10;;;;;;;3.78;1.63;;;;;;;;;;4974797;28;20038;-73
2022/05/23 00:56:43;;;;;;;4.18;1.27;;;;;;;;;;4959273;28;20493;-73
2022/05/23 00:59:10;;;;;;;7.80;1.02;;;;;;;;;;4976707;28;20038;-73
2022/05/23 01:01:37;;;;;;;4.10;1.38;;;;;;;;;;4969116;28;20039;-73
2022/05/23 01:04:05;;;;;;;3.45;0.95;;;;;;;;;;4974814;28;20130;-74
2022/05/23 01:06:31;;;;;;;3.75;1.13;;;;;;;;;;4974479;28;20043;-74
2022/05/23 01:08:57;;;;;;;2.92;1.35;;;;;;;;;;4962878;28;20035;-73
2022/05/23 01:11:24;;;;;;;7.18;1.42;;;;;;;;;;4973158;28;20031;-74
2022/05/23 01:13:53;;;;;;;3.13;1.42;;;;;;;;;;4976105;28;20026;-73
2022/05/23 01:16:20;;;;;;;5.20;1.10;;;;;;;;;;4978100;28;20502;-73
2022/05/23 01:18:46;;;;;;;5.25;1.30;;;;;;;;;;4974849;28;20042;-73
2022/05/23 01:21:15;;;;;;;3.60;1.08;;;;;;;;;;4973956;28;20031;-74
2022/05/23 01:23:52;;;;;;;3.60;0.90;;;;;;;;;;4973691;28;20110;-73
2022/05/23 01:26:19;;;;;;;6.03;1.05;;;;;;;;;;4974832;28;20211;-73
2022/05/23 01:28:45;;;;;;;5.45;0.98;;;;;;;;;;4973607;28;20387;-73
2022/05/23 01:31:12;;;;;;;6.47;1.23;;;;;;;;;;4973505;28;20031;-73
2022/05/23 01:33:39;;;;;;;6.55;1.30;;;;;;;;;;4972786;28;20030;-73
2022/05/23 01:36:05;;;;;;;4.55;1.52;;;;;;;;;;4974680;28;20046;-73
2022/05/23 01:38:31;;;;;;;3.20;1.25;;;;;;;;;;4974860;28;20038;-73
2022/05/23 01:40:58;;;;;;;4.32;1.17;;;;;;;;;;4973141;28;20031;-73
2022/05/23 01:43:25;;;;;;;3.28;1.08;;;;;;;;;;4974994;28;20089;-72
2022/05/23 01:45:51;;;;;;;4.95;1.10;;;;;;;;;;4972928;28;20038;-72
2022/05/23 01:48:17;;;;;;;4.80;1.20;;;;;;;;;;4977389;28;20049;-72
2022/05/23 01:50:43;;;;;;;3.55;1.08;;;;;;;;;;4973864;28;20058;-73
2022/05/23 01:53:09;;;;;;;5.18;1.25;;;;;;;;;;4975122;28;20045;-73
2022/05/23 01:55:36;;;;;;;6.68;1.30;;;;;;;;;;4973200;28;20034;-73
2022/05/23 01:58:03;;;;;;;2.85;0.85;;;;;;;;;;4973531;28;20027;-73
2022/05/23 02:03:14;;;;;;;2.88;1.00;;;;;;;;;;4955881;29;20759;-73
2022/05/23 02:05:41;;;;;;;4.93;1.30;;;;;;;;;;4965661;28;20054;-73
2022/05/23 02:08:07;;;;;;;7.95;1.10;;;;;;;;;;4973549;28;20038;-73
2022/05/23 02:10:33;;;;;;;3.47;1.30;;;;;;;;;;4972796;28;20034;-73
2022/05/23 02:13:02;;;;;;;2.30;1.10;;;;;;;;;;4966676;28;20026;-73
2022/05/23 02:15:31;;;;;;;3.88;1.15;;;;;;;;;;4973537;28;20414;-73
2022/05/23 02:17:59;;;;;;;3.58;0.80;;;;;;;;;;4973098;28;20023;-73
2022/05/23 02:20:26;;;;;;;5.47;1.55;;;;;;;;;;4974303;28;20027;-73
2022/05/23 02:22:52;;;;;;;4.35;1.05;;;;;;;;;;4973872;28;20103;-73
2022/05/23 02:25:18;;;;;;;4.18;1.15;;;;;;;;;;4973043;28;20490;-73
2022/05/23 02:27:45;;;;;;;2.83;1.20;;;;;;;;;;4969938;28;20035;-73
2022/05/23 02:30:11;;;;;;;9.18;1.00;;;;;;;;;;4966450;28;20033;-73
2022/05/23 02:32:37;;;;;;;4.43;1.13;;;;;;;;;;4974034;28;20071;-73
2022/05/23 02:35:04;;;;;;;4.07;1.00;;;;;;;;;;4973048;28;20038;-73
2022/05/23 02:37:30;;;;;;;4.80;1.00;;;;;;;;;;4972822;28;20042;-74
2022/05/23 02:39:56;;;;;;;4.15;1.20;;;;;;;;;;4973727;28;20031;-73
2022/05/23 02:42:22;;;;;;;4.57;1.15;;;;;;;;;;4973228;28;20027;-73
2022/05/23 02:44:48;;;;;;;3.05;1.00;;;;;;;;;;4974038;28;20022;-72
2022/05/23 02:47:14;;;;;;;5.15;1.30;;;;;;;;;;4971558;28;20042;-73
2022/05/23 02:49:41;;;;;;;8.18;1.20;;;;;;;;;;4969324;28;20382;-73
2022/05/23 02:52:07;;;;;;;6.22;2.10;;;;;;;;;;4974085;28;20027;-73
2022/05/23 02:54:33;;;;;;;3.33;1.38;;;;;;;;;;4973435;28;20042;-73
2022/05/23 02:56:59;;;;;;;3.50;1.00;;;;;;;;;;4972093;28;20053;-73
2022/05/23 02:59:25;;;;;;;6.47;1.40;;;;;;;;;;4971956;28;20092;-73
2022/05/23 03:04:36;;;;;;;5.55;1.20;;;;;;;;;;4973204;28;20057;-73
2022/05/23 03:07:02;;;;;;;5.07;1.30;;;;;;;;;;4971764;28;20406;-73
2022/05/23 03:09:30;;;;;;;3.63;1.05;;;;;;;;;;4971858;28;20475;-73
2022/05/23 03:11:56;;;;;;;11.30;1.60;;;;;;;;;;4972168;28;20118;-73
2022/05/23 03:14:22;;;;;;;6.68;1.65;;;;;;;;;;4973787;28;20035;-73
2022/05/23 03:16:48;;;;;;;3.92;1.17;;;;;;;;;;4971673;28;20046;-73
2022/05/23 03:19:14;;;;;;;2.92;1.00;;;;;;;;;;4972505;28;20031;-73
2022/05/23 03:27:09;;;;;;;4.95;0.95;;;;;;;;;;4974000;28;20045;-73
2022/05/23 03:29:35;;;;;;;7.35;1.83;;;;;;;;;;4971672;28;20039;-73
2022/05/23 03:32:01;;;;;;;3.92;1.23;;;;;;;;;;4973538;28;20031;-73
2022/05/23 03:34:27;;;;;;;3.28;1.10;;;;;;;;;;4973087;28;20454;-73
2022/05/23 03:36:53;;;;;;;3.20;0.93;;;;;;;;;;4972060;28;20034;-73
2022/05/23 03:39:20;;;;;;;4.47;1.40;;;;;;;;;;4971649;28;20031;-73
2022/05/23 03:41:46;;;;;;;4.10;1.48;;;;;;;;;;4968015;28;20027;-73
2022/05/23 03:44:12;;;;;;;8.85;1.40;;;;;;;;;;4971985;28;20031;-73
2022/05/23 03:46:38;;;;;;;6.13;1.67;;;;;;;;;;4970319;28;20126;-72
2022/05/23 03:49:08;;;;;;;4.53;1.20;;;;;;;;;;4971740;28;20108;-73
2022/05/23 03:51:34;;;;;;;4.60;1.30;;;;;;;;;;4971090;28;20121;-72
2022/05/23 03:54:00;;;;;;;3.92;1.35;;;;;;;;;;4971973;28;20031;-72
2022/05/23 03:56:26;;;;;;;5.03;1.38;;;;;;;;;;4967638;28;20039;-72
2022/05/23 03:58:52;;;;;;;9.27;1.70;;;;;;;;;;4971767;28;20031;-73
2022/05/23 04:01:21;;;;;;;3.58;1.48;;;;;;;;;;4972081;28;20027;-73
2022/05/23 04:03:47;;;;;;;3.63;1.38;;;;;;;;;;4973427;28;20192;-73
2022/05/23 04:06:14;;;;;;;2.08;0.88;;;;;;;;;;4971590;28;20470;-73
2022/05/23 04:08:40;;;;;;;3.47;1.75;;;;;;;;;;4970525;28;20101;-73
2022/05/23 04:11:06;;;;;;;5.28;1.60;;;;;;;;;;4941243;28;20118;-73
2022/05/23 04:13:33;;;;;;;3.65;1.30;;;;;;;;;;4969109;28;20118;-73
2022/05/23 04:15:59;;;;;;;4.13;1.48;;;;;;;;;;4970517;28;20042;-74
2022/05/23 04:18:25;;;;;;;7.53;1.40;;;;;;;;;;4969912;28;20117;-74
2022/05/23 04:20:51;;;;;;;5.57;1.50;;;;;;;;;;4974476;28;20054;-73
2022/05/23 04:23:18;;;;;;;5.72;1.50;;;;;;;;;;4978516;28;20054;-73
2022/05/23 04:25:45;;;;;;;7.03;1.30;;;;;;;;;;4971100;28;20042;-74
2022/05/23 04:28:13;;;;;;;6.28;1.60;;;;;;;;;;4972726;28;20046;-73
2022/05/23 04:30:39;;;;;;;6.10;1.45;;;;;;;;;;4971181;28;20046;-73
2022/05/23 04:35:50;;;;;;;3.25;1.33;;;;;;;;;;4970893;28;20434;-73
2022/05/23 04:38:17;;;;;;;10.00;1.67;;;;;;;;;;4970500;28;20031;-74
2022/05/23 04:40:43;;;;;;;6.07;2.05;;;;;;;;;;4979823;28;20105;-74
2022/05/23 04:43:09;;;;;;;3.05;1.20;;;;;;;;;;4953647;28;20023;-74
2022/05/23 04:45:35;;;;;;;5.22;1.45;;;;;;;;;;4970772;28;20042;-73
2022/05/23 04:50:46;;;;;;;2.15;1.23;;;;;;;;;;4966193;28;20447;-73
2022/05/23 04:53:12;;;;;;;3.50;1.50;;;;;;;;;;4964055;28;20031;-73
2022/05/23 04:55:41;;;;;;;4.80;1.77;;;;;;;;;;4974502;28;20035;-73
2022/05/23 04:58:07;;;;;;;8.55;1.58;;;;;;;;;;4943738;28;20035;-72
2022/05/23 05:00:34;;;;;;;2.28;1.27;;;;;;;;;;4970367;28;20093;-72
2022/05/23 05:03:00;;;;;;;5.20;1.73;;;;;;;;;;4969819;28;20066;-73
2022/05/23 05:05:27;;;;;;;7.18;1.98;;;;;;;;;;4967911;28;20109;-73
2022/05/23 05:07:54;;;;;;;5.93;1.48;;;;;;;;;;4952937;29;20027;-73
2022/05/23 05:10:23;;;;;;;6.18;2.42;;;;;;;;;;4967542;28;20038;-73
2022/05/23 05:12:49;;;;;;;1.98;1.25;;;;;;;;;;4975384;28;20053;-73
2022/05/23 05:15:15;;;;;;;4.60;1.42;;;;;;;;;;4969330;28;20023;-73
2022/05/23 05:17:41;;;;;;;5.00;2.03;;;;;;;;;;4970643;28;20027;-73
2022/05/23 05:20:11;;;;;;;5.55;1.40;;;;;;;;;;4970947;28;20394;-73
2022/05/23 05:22:37;;;;;;;4.53;1.77;;;;;;;;;;4967683;28;20487;-73
2022/05/23 05:25:04;;;;;;;6.00;1.50;;;;;;;;;;4970515;28;20054;-73
2022/05/23 05:27:30;;;;;;;7.43;1.75;;;;;;;;;;4970282;28;20045;-73
2022/05/23 05:29:57;;;;;;;5.10;1.60;;;;;;;;;;4977062;28;20031;-73
2022/05/23 05:32:26;;;;;;;4.82;1.55;;;;;;;;;;4968753;28;20421;-73
2022/05/23 05:34:58;;;;;;;5.68;1.80;;;;;;;;;;4971640;28;20085;-74
2022/05/23 05:37:26;;;;;;;6.53;1.92;;;;;;;;;;4966160;28;20062;-74
2022/05/23 05:39:54;;;;;;;4.88;2.20;;;;;;;;;;4972072;28;20035;-74
2022/05/23 05:42:39;;;;;;;9.23;2.00;;;;;;;;;;4972678;28;20442;-73
2022/05/23 05:45:08;;;;;;;23.10;14.85;;;;;;;;;;4968694;28;20030;-73
2022/05/23 05:47:35;;;;;;;20.25;10.63;;;;;;;;;;4970447;28;20030;-72
2022/05/23 05:50:07;;;;;;;4.97;2.33;;;;;;;;;;4971029;28;20038;-73
2022/05/23 05:52:34;;;;;;;4.22;1.88;;;;;;;;;;4967316;28;20082;-73
2022/05/23 05:55:01;;;;;;;5.03;1.55;;;;;;;;;;4970559;28;20530;-73
2022/05/23 05:57:28;;;;;;;5.25;1.73;;;;;;;;;;4969762;28;20467;-73
2022/05/23 05:59:54;;;;;;;6.88;2.10;;;;;;;;;;4973281;28;20035;-74
2022/05/23 06:02:20;;;;;;;10.20;2.70;;;;;;;;;;4969156;28;20031;-74
2022/05/23 06:04:46;;;;;;;5.60;2.05;;;;;;;;;;4971310;28;20067;-74
2022/05/23 06:12:50;;;;;;;8.27;1.60;;;;;;;;;;4952991;29;20046;-73
2022/05/23 06:15:16;;;;;;;3.13;1.63;;;;;;;;;;4953104;28;20032;-76
2022/05/23 06:17:42;;;;;;;13.13;8.75;;;;;;;;;;4947087;28;20082;-75
2022/05/23 06:20:09;;;;;;;15.88;9.45;;;;;;;;;;4949296;28;20466;-75
2022/05/23 06:22:35;;;;;;;102.72;59.65;;;;;;;;;;4942535;28;20062;-75
2022/05/23 06:25:02;;;;;;;6.00;2.55;;;;;;;;;;4954392;29;20094;-76
2022/05/23 06:27:28;;;;;;;7.43;2.63;;;;;;;;;;4947468;28;20035;-74
2022/05/23 06:29:54;;;;;;;6.07;2.35;;;;;;;;;;4946805;28;20439;-74
2022/05/23 06:32:20;;;;;;;5.95;1.85;;;;;;;;;;4952762;29;20471;-74
2022/05/23 06:34:47;;;;;;;8.52;1.90;;;;;;;;;;4951254;28;20399;-74
2022/05/23 06:37:13;;;;;;;7.10;2.13;;;;;;;;;;4932810;28;20046;-74
2022/05/23 06:39:39;;;;;;;6.25;2.05;;;;;;;;;;4951345;28;20054;-74
2022/05/23 06:42:05;;;;;;;5.38;2.13;;;;;;;;;;4954796;29;20027;-74
2022/05/23 06:44:32;;;;;;;6.57;1.90;;;;;;;;;;4947047;28;20050;-74
2022/05/23 06:47:00;;;;;;;6.68;1.77;;;;;;;;;;4954842;29;20546;-74
2022/05/23 06:49:26;;;;;;;7.18;2.22;;;;;;;;;;4949697;28;20030;-74
2022/05/23 06:51:53;;;;;;;5.13;1.90;;;;;;;;;;4951969;28;20031;-73
2022/05/23 06:54:20;;;;;;;27.30;13.38;;;;;;;;;;4950611;28;20600;-77
2022/05/23 06:56:48;;;;;;;11.73;6.38;;;;;;;;;;4953235;29;20059;-77
2022/05/23 06:59:15;;;;;;;10.77;4.90;;;;;;;;;;4936428;29;20423;-76
2022/05/23 07:01:41;;;;;;;11.80;2.85;;;;;;;;;;4931592;29;20039;-73
2022/05/23 07:04:08;;;;;;;5.50;2.15;;;;;;;;;;4953778;29;20036;-73
2022/05/23 07:14:48;;;;;;;4.18;2.00;;;;;;;;;;4972313;28;20050;-75
2022/05/23 07:17:15;;;;;;;5.15;2.60;;;;;;;;;;4971641;28;20030;-75
2022/05/23 07:19:41;;;;;;;6.57;2.28;;;;;;;;;;4970487;28;20034;-75
2022/05/23 07:22:07;;;;;;;8.88;2.33;;;;;;;;;;4970204;28;20109;-76
2022/05/23 07:24:34;;;;;;;9.05;2.80;;;;;;;;;;4971849;28;20050;-75
2022/05/23 07:27:00;;;;;;;6.72;2.75;;;;;;;;;;4972379;28;20046;-75
2022/05/23 07:29:26;;;;;;;5.03;2.00;;;;;;;;;;4975673;28;20022;-75
2022/05/23 07:31:53;;;;;;;6.82;2.30;;;;;;;;;;4971912;28;20382;-74
2022/05/23 07:34:19;;;;;;;5.45;2.38;;;;;;;;;;4970344;28;20042;-74
2022/05/23 07:36:46;;;;;;;6.65;2.60;;;;;;;;;;4969021;28;20038;-73
2022/05/23 07:39:12;;;;;;;4.97;2.15;;;;;;;;;;4967806;28;20038;-74
2022/05/23 07:41:40;;;;;;;5.68;1.85;;;;;;;;;;4970477;28;20026;-75
2022/05/23 07:44:07;;;;;;;4.15;2.05;;;;;;;;;;4970301;28;20042;-84
2022/05/23 07:46:34;;;;;;;10.32;4.15;;;;;;;;;;4965978;28;20043;-74
2022/05/23 07:49:00;;;;;;;40.78;25.55;;;;;;;;;;4970040;28;20039;-74
2022/05/23 07:51:30;;;;;;;9.13;3.47;;;;;;;;;;4953333;28;20085;-74
2022/05/23 08:02:12;;;;;;;15.98;11.55;;;;;;;;;;4966990;28;20057;-75
2022/05/23 08:04:38;;;;;;;13.73;8.93;;;;;;;;;;4967495;28;20041;-75
2022/05/23 08:07:05;;;;;;;6.15;2.60;;;;;;;;;;4970437;28;20035;-74
2022/05/23 08:09:31;;;;;;;6.03;2.40;;;;;;;;;;4969104;28;20110;-76
2022/05/23 08:11:58;;;;;;;5.00;2.67;;;;;;;;;;4970095;28;20034;-76
2022/05/23 08:14:24;;;;;;;7.03;2.40;;;;;;;;;;4955254;28;20031;-76
2022/05/23 08:16:52;;;;;;;5.57;2.35;;;;;;;;;;4971949;28;20042;-75
2022/05/23 08:19:18;;;;;;;6.53;2.20;;;;;;;;;;4969678;28;20031;-75
2022/05/23 08:21:49;;;;;;;6.05;2.35;;;;;;;;;;4971371;28;20101;-76
2022/05/23 08:24:16;;;;;;;5.95;2.28;;;;;;;;;;4972521;28;20034;-76
2022/05/23 08:26:42;;;;;;;6.95;2.42;;;;;;;;;;4971352;28;20062;-76
2022/05/23 08:29:09;;;;;;;5.30;2.30;;;;;;;;;;4968990;28;20596;-76
2022/05/23 08:31:35;;;;;;;8.07;2.85;;;;;;;;;;4971711;28;20031;-75
2022/05/23 08:34:02;;;;;;;7.82;2.38;;;;;;;;;;4971819;28;20061;-75
2022/05/23 08:36:28;;;;;;;9.48;2.33;;;;;;;;;;4972065;28;20035;-76
2022/05/23 08:38:55;;;;;;;6.35;2.50;;;;;;;;;;4969696;28;20122;-76
2022/05/23 08:41:27;;;;;;;9.57;2.38;;;;;;;;;;4968662;28;20031;-75
2022/05/23 08:44:05;;;;;;;5.95;2.72;;;;;;;;;;4968934;28;20039;-72
2022/05/23 08:46:44;;;;;;;8.63;2.75;;;;;;;;;;4962508;28;20465;-71
2022/05/23 08:49:16;;;;;;;6.60;2.38;;;;;;;;;;4962808;28;20054;-72
2022/05/23 08:51:44;;;;;;;4.78;2.75;;;;;;;;;;4970106;28;20113;-73
2022/05/23 08:54:36;;;;;;;8.50;2.67;;;;;;;;;;4970588;28;20375;-73
2022/05/23 08:57:03;;;;;;;;;;;;;;;;;;4955934;28;20051;-73
2022/05/23 08:59:32;;;;;;;5.47;2.42;;;;;;;;;;4974795;28;19941;-73
2022/05/23 09:02:02;;;;;;;9.50;4.82;;;;;;;;;;4962891;28;20538;-74
2022/05/23 09:04:43;;;;;;;15.27;9.50;;;;;;;;;;4972923;28;20097;-74
2022/05/23 09:07:13;;;;;;;7.60;2.55;;;;;;;;;;4972127;28;20046;-72
2022/05/23 09:09:39;;;;;;;4.18;1.98;;;;;;;;;;4974076;28;20093;-74
2022/05/23 09:12:10;;;;;;;4.85;2.00;;;;;;;;;;4973106;28;20041;-74
2022/05/23 09:14:37;;;;;;;7.38;2.58;;;;;;;;;;4973690;28;20037;-75
2022/05/23 09:17:03;;;;;;;4.40;2.40;;;;;;;;;;4974555;28;20034;-75
2022/05/23 09:19:40;;;;;;;5.53;2.80;;;;;;;;;;4974532;28;20081;-75
2022/05/23 09:22:13;;;;;;;5.75;2.38;;;;;;;;;;4975457;28;20379;-75
2022/05/23 09:24:43;;;;;;;15.30;8.60;;;;;;;;;;4974932;28;20041;-74
2022/05/23 09:27:35;;;;;;;20.00;11.80;;;;;;;;;;4970294;28;20035;-73
2022/05/23 09:30:02;;;;;;;5.82;2.67;;;;;;;;;;4957231;28;20294;-71
2022/05/23 09:32:33;;;;;;;5.10;2.25;;;;;;;;;;4975453;28;20031;-71
2022/05/23 09:35:00;;;;;;;9.75;3.00;;;;;;;;;;4974609;28;20035;-72
2022/05/23 09:37:38;;;;;;;5.55;2.63;;;;;;;;;;4969403;28;20039;-72
2022/05/23 09:40:06;;;;;;;7.40;2.85;;;;;;;;;;4969805;28;20023;-72
2022/05/23 09:48:13;;;;;;;7.30;2.70;;;;;;;;;;4972533;28;20030;-72
2022/05/23 09:50:40;;;;;;;5.90;2.78;;;;;;;;;;4973855;28;20034;-72
2022/05/23 09:53:17;;;;;;;9.98;2.45;;;;;;;;;;4971809;28;20133;-77
2022/05/23 09:55:43;;;;;;;5.60;2.40;;;;;;;;;;4966418;28;20054;-72
2022/05/23 09:58:11;;;;;;;6.35;2.80;;;;;;;;;;4970910;28;20034;-72
2022/05/23 10:00:41;;;;;;;9.93;4.50;;;;;;;;;;4975993;28;20037;-71
2022/05/23 10:03:27;;;;;;;5.20;2.40;;;;;;;;;;4973619;28;20035;-74
2022/05/23 10:06:11;;;;;;;4.65;2.63;;;;;;;;;;4960933;28;20055;-74
2022/05/23 10:08:45;;;;;;;4.63;2.47;;;;;;;;;;4965658;28;20035;-74
2022/05/23 10:11:31;;;;;;;2.72;2.25;;;;;;;;;;4964102;28;20035;-74
2022/05/23 10:13:59;;;;;;;8.30;2.55;;;;;;;;;;4969024;28;20380;-73
2022/05/23 10:16:30;;;;;;;5.82;2.20;;;;;;;;;;4967839;28;20106;-73
2022/05/23 10:19:01;;;;;;;4.90;2.30;;;;;;;;;;4964112;28;20038;-74
2022/05/23 10:21:27;;;;;;;;;;;;;;;;;;4967114;28;20035;-74
2022/05/23 10:23:59;;;;;;;4.55;2.58;;;;;;;;;;4966707;28;19948;-74
2022/05/23 10:26:26;;;;;;;5.60;2.75;;;;;;;;;;4968830;28;20039;-74
2022/05/23 10:28:55;;;;;;;9.30;2.35;;;;;;;;;;4965223;28;20486;-74
2022/05/23 10:31:29;;;;;;;4.70;2.45;;;;;;;;;;4968693;28;20049;-75
2022/05/23 10:34:12;;;;;;;4.38;2.17;;;;;;;;;;4968101;28;20023;-75
2022/05/23 10:36:41;;;;;;;4.88;1.50;;;;;;;;;;4964643;28;20062;-75
2022/05/23 10:42:09;;;;;;;6.68;2.40;;;;;;;;;;4966260;28;20058;-74
2022/05/23 10:44:35;;;;;;;7.45;2.85;;;;;;;;;;4957423;28;20041;-75
2022/05/23 10:47:18;;;;;;;4.53;1.80;;;;;;;;;;4968183;28;20165;-75
2022/05/23 10:49:53;;;;;;;6.28;1.63;;;;;;;;;;4973673;28;20031;-74
2022/05/23 10:52:19;;;;;;;4.93;1.70;;;;;;;;;;4972274;28;20046;-75
2022/05/23 10:54:48;;;;;;;3.25;1.50;;;;;;;;;;4973985;28;20030;-74
2022/05/23 10:57:34;;;;;;;8.40;1.88;;;;;;;;;;4973426;28;20038;-74
2022/05/23 11:00:07;;;;;;;5.50;1.20;;;;;;;;;;4958448;28;20121;-75
2022/05/23 11:02:39;;;;;;;4.10;1.52;;;;;;;;;;4970581;28;20030;-75
2022/05/23 11:05:17;;;;;;;3.15;1.40;;;;;;;;;;4972702;28;20138;-75
2022/05/23 11:07:55;;;;;;;7.25;1.20;;;;;;;;;;4971298;28;20394;-75
2022/05/23 11:10:22;;;;;;;5.85;1.40;;;;;;;;;;4982625;28;20108;-75
2022/05/23 11:12:55;;;;;;;3.58;1.58;;;;;;;;;;4979518;28;20035;-74
2022/05/23 11:15:31;;;;;;;3.95;1.30;;;;;;;;;;4973283;28;20522;-74
2022/05/23 11:17:58;;;;;;;2.92;1.30;;;;;;;;;;4972109;28;20038;-75
2022/05/23 11:20:34;;;;;;;3.58;0.95;;;;;;;;;;4972339;28;20110;-75
2022/05/23 11:23:18;;;;;;;2.83;1.10;;;;;;;;;;4970855;28;20062;-74
2022/05/23 11:25:52;;;;;;;4.55;1.50;;;;;;;;;;4957583;28;20037;-75
2022/05/23 11:34:14;;;;;;;4.97;1.27;;;;;;;;;;4964768;28;20161;-75
2022/05/23 11:39:44;;;;;;;8.05;1.70;;;;;;;;;;4971587;28;20533;-75
2022/05/23 11:42:30;;;;;;;6.97;1.63;;;;;;;;;;4967584;28;20037;-74
2022/05/23 11:47:51;;;;;;;6.25;1.27;;;;;;;;;;4959035;28;20045;-75
2022/05/23 11:50:21;;;;;;;7.25;1.52;;;;;;;;;;4971535;28;20034;-75
2022/05/23 11:53:03;;;;;;;5.85;1.75;;;;;;;;;;4972222;28;20022;-75
2022/05/23 11:55:48;;;;;;;4.65;1.50;;;;;;;;;;4972050;28;20054;-74
2022/05/23 11:58:33;;;;;;;2.75;1.15;;;;;;;;;;4970333;28;20065;-75
2022/05/23 12:01:04;;;;;;;5.88;1.35;;;;;;;;;;4972473;28;20058;-75
2022/05/23 12:03:51;;;;;;;4.03;1.33;;;;;;;;;;4971844;28;20089;-75
2022/05/23 12:06:23;;;;;;;2.80;1.33;;;;;;;;;;4955801;28;20051;-75
2022/05/23 12:08:59;;;;;;;3.47;1.15;;;;;;;;;;4971085;28;20015;-75
2022/05/23 12:11:36;;;;;;;3.95;1.70;;;;;;;;;;4970858;28;20471;-75
2022/05/23 12:14:17;;;;;;;4.70;1.10;;;;;;;;;;4973087;28;20018;-75
2022/05/23 12:16:55;;;;;;;6.03;1.23;;;;;;;;;;4970408;28;20065;-74
2022/05/23 12:19:21;;;;;;;3.30;1.20;;;;;;;;;;4972314;28;20638;-75
2022/05/23 12:21:48;;;;;;;3.60;1.13;;;;;;;;;;4972637;28;20034;-75
2022/05/23 12:24:24;;;;;;;5.65;1.10;;;;;;;;;;4969249;28;20615;-75
2022/05/23 12:26:52;;;;;;;3.78;1.83;;;;;;;;;;4971043;28;20046;-75
2022/05/23 12:29:24;;;;;;;6.68;1.80;;;;;;;;;;4971227;28;20475;-75
2022/05/23 12:32:05;;;;;;;1.80;0.82;;;;;;;;;;4971039;28;20034;-74
2022/05/23 12:34:32;;;;;;;2.22;0.98;;;;;;;;;;4971100;28;20109;-74
2022/05/23 12:36:58;;;;;;;3.67;1.20;;;;;;;;;;4976187;28;20355;-74
2022/05/23 12:39:40;;;;;;;3.67;1.13;;;;;;;;;;4975027;28;20113;-74
2022/05/23 12:42:19;;;;;;;5.82;1.13;;;;;;;;;;4956524;28;20042;-74
2022/05/23 12:44:50;;;;;;;3.35;1.08;;;;;;;;;;4973426;28;20027;-74
2022/05/23 12:47:29;;;;;;;4.07;1.48;;;;;;;;;;4976152;28;20061;-74
2022/05/23 12:50:13;;;;;;;4.22;1.10;;;;;;;;;;4958802;28;20553;-74
2022/05/23 12:53:01;;;;;;;3.00;1.15;;;;;;;;;;4974165;28;20042;-74
2022/05/23 12:55:33;;;;;;;5.50;1.23;;;;;;;;;;4974439;28;20034;-74
2022/05/23 12:57:59;;;;;;;3.90;1.17;;;;;;;;;;4974828;28;20034;-73
2022/05/23 13:00:31;;;;;;;6.93;1.92;;;;;;;;;;4973729;28;20488;-77
2022/05/23 13:03:02;;;;;;;4.40;1.90;;;;;;;;;;4970171;28;20382;-73
2022/05/23 13:05:43;;;;;;;6.30;2.38;;;;;;;;;;4965456;28;20070;-73
2022/05/23 13:08:24;;;;;;;2.67;1.40;;;;;;;;;;4969072;28;20840;-73
2022/05/23 13:11:04;;;;;;;4.78;1.50;;;;;;;;;;4968916;28;20034;-76
2022/05/23 13:13:34;;;;;;;7.82;2.10;;;;;;;;;;4970712;28;20430;-75
2022/05/23 13:16:13;;;;;;;8.32;1.80;;;;;;;;;;4975914;28;20517;-75
2022/05/23 13:24:14;;;;;;;7.50;2.10;;;;;;;;;;4969433;28;20057;-74
2022/05/23 13:26:40;;;;;;;4.30;1.98;;;;;;;;;;4973579;28;20035;-75
2022/05/23 13:29:10;;;;;;;9.75;2.40;;;;;;;;;;4972389;28;20137;-75
2022/05/23 13:31:36;;;;;;;6.13;2.10;;;;;;;;;;4969397;28;20041;-75
2022/05/23 13:34:03;;;;;;;5.07;2.40;;;;;;;;;;4967703;28;20026;-75
2022/05/23 13:36:46;;;;;;;8.70;3.50;;;;;;;;;;4970018;28;20045;-75
2022/05/23 13:39:14;;;;;;;5.95;4.00;;;;;;;;;;4974542;28;20501;-74
2022/05/23 13:41:40;;;;;;;5.43;2.40;;;;;;;;;;4972768;28;20023;-76
2022/05/23 13:44:06;;;;;;;4.28;1.90;;;;;;;;;;4964055;28;20039;-76
2022/05/23 13:46:32;;;;;;;6.05;1.88;;;;;;;;;;4972461;28;20386;-76
2022/05/23 13:49:00;;;;;;;6.28;1.83;;;;;;;;;;4963181;28;20079;-77
2022/05/23 13:51:32;;;;;;;4.28;1.80;;;;;;;;;;4970986;28;20034;-76
2022/05/23 13:54:06;;;;;;;4.55;2.17;;;;;;;;;;4957357;28;20035;-76
2022/05/23 13:56:32;;;;;;;6.13;2.00;;;;;;;;;;4972842;28;20359;-76
2022/05/23 13:59:00;;;;;;;1.77;1.38;;;;;;;;;;4968382;28;20027;-76
2022/05/23 14:01:39;;;;;;;3.42;2.15;;;;;;;;;;4968312;28;20035;-76
2022/05/23 14:04:10;;;;;;;6.78;1.55;;;;;;;;;;4971965;28;20851;-76
2022/05/23 14:06:41;;;;;;;4.85;1.85;;;;;;;;;;4972577;28;20094;-76
2022/05/23 14:09:09;;;;;;;3.55;1.75;;;;;;;;;;4972432;28;20431;-76
2022/05/23 14:11:49;;;;;;;5.70;1.70;;;;;;;;;;4965736;28;20027;-76
2022/05/23 14:14:18;;;;;;;8.32;1.92;;;;;;;;;;4969775;28;20034;-76
2022/05/23 14:16:54;;;;;;;5.45;1.63;;;;;;;;;;4973118;28;20478;-76
2022/05/23 14:19:24;;;;;;;3.03;1.50;;;;;;;;;;4969880;28;20526;-76
2022/05/23 14:22:03;;;;;;;3.42;1.73;;;;;;;;;;4963264;28;20035;-76
2022/05/23 14:24:30;;;;;;;4.40;1.65;;;;;;;;;;4973118;28;20027;-76
2022/05/23 14:27:22;;;;;;;5.95;1.67;;;;;;;;;;4972973;28;20479;-76
2022/05/23 14:30:08;;;;;;;4.38;1.85;;;;;;;;;;4970066;28;20137;-76
2022/05/23 14:32:34;;;;;;;3.75;1.90;;;;;;;;;;4968850;28;20379;-76
2022/05/23 14:35:16;;;;;;;6.05;2.00;;;;;;;;;;4973349;28;20026;-76
2022/05/23 14:37:42;;;;;;;7.97;2.28;;;;;;;;;;4974890;28;20042;-76
2022/05/23 14:40:11;;;;;;;9.98;2.05;;;;;;;;;;4974421;28;20106;-75
2022/05/23 14:42:39;;;;;;;11.30;2.00;;;;;;;;;;4973250;28;20494;-75
2022/05/23 14:45:05;;;;;;;3.38;1.70;;;;;;;;;;4974431;28;20043;-75
2022/05/23 14:47:31;;;;;;;5.45;2.28;;;;;;;;;;4972658;28;20034;-76
2022/05/23 14:50:09;;;;;;;5.95;2.00;;;;;;;;;;4973712;28;20109;-76
2022/05/23 14:52:38;;;;;;;3.70;2.05;;;;;;;;;;4979190;28;20104;-75
2022/05/23 14:55:21;;;;;;;6.63;2.00;;;;;;;;;;4970832;28;20105;-76
2022/05/23 15:00:43;;;;;;;2.65;2.08;;;;;;;;;;4972588;28;20494;-76
2022/05/23 15:03:22;;;;;;;3.05;1.63;;;;;;;;;;4966409;28;20030;-76
2022/05/23 15:05:49;;;;;;;5.00;2.28;;;;;;;;;;4971316;28;20054;-77
2022/05/23 15:08:17;;;;;;;5.72;1.70;;;;;;;;;;4972229;28;20035;-77
2022/05/23 15:10:44;;;;;;;4.03;2.30;;;;;;;;;;4955981;28;20043;-77
2022/05/23 15:13:11;;;;;;;3.58;2.00;;;;;;;;;;4963573;28;20031;-77
2022/05/23 15:15:38;;;;;;;6.47;2.30;;;;;;;;;;4954853;28;20033;-77
2022/05/23 15:18:07;;;;;;;3.80;2.30;;;;;;;;;;4973168;28;20027;-76
2022/05/23 15:20:34;;;;;;;3.88;2.40;;;;;;;;;;4971779;28;20035;-76
2022/05/23 15:23:00;;;;;;;5.82;2.83;;;;;;;;;;4968173;28;20035;-76
2022/05/23 15:25:26;;;;;;;7.13;2.92;;;;;;;;;;4971609;28;20023;-77
2022/05/23 15:27:53;;;;;;;5.55;3.40;;;;;;;;;;4971036;28;20070;-76
2022/05/23 15:30:21;;;;;;;5.90;3.15;;;;;;;;;;4963455;28;20031;-76
2022/05/23 15:32:48;;;;;;;5.97;3.20;;;;;;;;;;4971451;28;20030;-77
2022/05/23 15:35:15;;;;;;;7.50;3.60;;;;;;;;;;4968932;28;20320;-76
2022/05/23 15:37:43;;;;;;;8.85;4.20;;;;;;;;;;4973494;28;20522;-76
2022/05/23 15:40:09;;;;;;;7.60;4.68;;;;;;;;;;4969918;28;20030;-77
2022/05/23 15:42:38;;;;;;;8.40;5.43;;;;;;;;;;4970549;28;20035;-77
2022/05/23 15:45:06;;;;;;;12.90;8.63;;;;;;;;;;4969414;28;20046;-76
2022/05/23 15:47:34;;;;;;;15.30;8.98;;;;;;;;;;4972691;28;20474;-76
2022/05/23 15:50:01;;;;;;;15.48;11.68;;;;;;;;;;4970501;28;20023;-76
2022/05/23 15:52:28;;;;;;;17.00;12.35;;;;;;;;;;4967793;28;20022;-76
2022/05/23 15:54:55;;;;;;;20.92;12.77;;;;;;;;;;4972825;28;20211;-76
2022/05/23 15:57:28;;;;;;;18.55;14.27;;;;;;;;;;4969880;28;20042;-76
2022/05/23 15:59:55;;;;;;;21.05;15.20;;;;;;;;;;4972947;28;20031;-76
2022/05/23 16:02:21;;;;;;;16.58;13.43;;;;;;;;;;4967924;28;20034;-76
2022/05/23 16:04:47;;;;;;;21.58;17.02;;;;;;;;;;4969588;28;20019;-75
2022/05/23 16:07:13;;;;;;;22.40;16.27;;;;;;;;;;4969813;28;20039;-76